CheckWX is a tool to help pilots better visualize weather data.  It is not intended as a substitute for an official pre-flight weather briefing.

15:59:32 UTC

PFKW METAR
Kwethluk Airport
Kwethluk, Alaska, USA
Current

16 mins ago

PFKW 131544Z AUTO 19012KT 10SM OVC004 12/12 A2985 RMK AO2
Observed
Jul-13 @ 15:44 UTC
Wind
  • 190° at 12 KTS
Visibility
10 SM
Flight Rules
LIFR
Cloud Levels
  • Overcast at 400' AGL
Temperature
12°C / 54°F
Dewpoint
12°C / 54°F
Humidity
100%
Altimeter
29.85" Hg
Pressure
1010.82 hPa
Previous

1 hour ago

PFKW 131456Z AUTO 19011KT 5SM BR OVC002 12/12 A2984 RMK AO2 SLP105 T01220117 52008
Observed
Jul-13 @ 14:56 UTC
Wind
  • 190° at 11 KTS
Visibility
5 SM
Flight Rules
LIFR
Conditions
Mist
Cloud Levels
  • Overcast at 200' AGL
Temperature
12°C / 54°F
Dewpoint
12°C / 54°F
Humidity
100%
Altimeter
29.84" Hg
Pressure
1010.52 hPa
Previous

1 hour ago

PFKW 131442Z AUTO 19010KT 1 3/4SM BR OVC002 12/12 A2984 RMK AO2
Observed
Jul-13 @ 14:42 UTC
Wind
  • 190° at 10 KTS
Visibility
1 3/4 SM
Flight Rules
LIFR
Conditions
Mist
Cloud Levels
  • Overcast at 200' AGL
Temperature
12°C / 54°F
Dewpoint
12°C / 54°F
Humidity
100%
Altimeter
29.84" Hg
Pressure
1010.52 hPa